createdAt,value
2023-01-27T00:00:02.809Z,3.96
2023-01-27T00:01:02.775Z,3.91
2023-01-27T00:02:02.796Z,3.88
2023-01-27T00:03:02.804Z,3.94
2023-01-27T00:04:02.831Z,3.78
2023-01-27T00:05:02.815Z,3.87
2023-01-27T00:06:02.780Z,3.91
2023-01-27T00:07:02.787Z,3.86
2023-01-27T00:08:02.784Z,3.92
2023-01-27T00:09:02.784Z,3.84
2023-01-27T00:10:02.803Z,3.88
2023-01-27T00:11:02.787Z,3.87
2023-01-27T00:12:02.819Z,3.83
2023-01-27T00:13:02.855Z,3.87
2023-01-27T00:14:02.786Z,3.83
2023-01-27T00:15:02.786Z,3.96
2023-01-27T00:16:02.905Z,3.83
2023-01-27T00:17:02.830Z,3.91
2023-01-27T00:18:02.800Z,3.98
2023-01-27T00:19:02.800Z,4.06
2023-01-27T00:20:03.997Z,4.04
2023-01-27T00:21:02.806Z,3.95
2023-01-27T00:22:02.803Z,4.04
2023-01-27T00:23:02.803Z,4.02
2023-01-27T00:24:02.856Z,4.08
2023-01-27T00:25:02.859Z,4.10
2023-01-27T00:26:02.803Z,4.06
2023-01-27T00:27:02.801Z,4.01
2023-01-27T00:28:02.807Z,3.96
2023-01-27T00:29:02.831Z,4.01
2023-01-27T00:30:02.827Z,4.01
2023-01-27T00:31:02.903Z,4.01
2023-01-27T00:32:02.816Z,3.99
2023-01-27T00:33:02.803Z,4.01
2023-01-27T00:34:02.813Z,3.95
2023-01-27T00:35:02.808Z,3.83
2023-01-27T00:36:02.834Z,3.94
2023-01-27T00:37:02.845Z,3.86
2023-01-27T00:38:02.813Z,3.81
2023-01-27T00:39:02.810Z,3.78
2023-01-27T00:40:02.847Z,3.78
2023-01-27T00:41:02.832Z,3.80
2023-01-27T00:42:02.818Z,3.78
2023-01-27T00:43:02.819Z,3.80
2023-01-27T00:44:02.828Z,3.84
2023-01-27T00:45:02.871Z,3.74
2023-01-27T00:46:03.059Z,3.77
2023-01-27T00:47:02.828Z,3.80
2023-01-27T00:48:02.819Z,3.80
2023-01-27T00:49:02.823Z,3.78
2023-01-27T00:50:02.837Z,3.86
2023-01-27T00:51:02.832Z,3.78
2023-01-27T00:52:02.832Z,3.77
2023-01-27T00:53:02.827Z,3.80
2023-01-27T00:54:02.837Z,3.83
2023-01-27T00:55:02.847Z,3.76
2023-01-27T00:56:02.855Z,3.76
2023-01-27T00:57:02.832Z,3.63
2023-01-27T00:58:02.845Z,3.68
2023-01-27T00:59:02.851Z,3.65
2023-01-27T01:00:02.839Z,3.63
2023-01-27T01:01:02.900Z,3.78
2023-01-27T01:02:02.921Z,3.83
2023-01-27T01:03:02.894Z,3.78
2023-01-27T01:04:02.862Z,3.80
2023-01-27T01:05:02.840Z,3.78
2023-01-27T01:06:02.854Z,3.76
2023-01-27T01:07:02.841Z,3.84
2023-01-27T01:08:02.851Z,3.88
2023-01-27T01:09:02.858Z,3.80
2023-01-27T01:10:02.856Z,3.83
2023-01-27T01:11:02.853Z,3.84
2023-01-27T01:12:02.848Z,3.96
2023-01-27T01:13:02.854Z,3.94
2023-01-27T01:14:02.862Z,3.92
2023-01-27T01:15:02.857Z,3.92
2023-01-27T01:16:02.892Z,3.87
2023-01-27T01:17:02.875Z,3.96
2023-01-27T01:18:02.866Z,3.96
2023-01-27T01:19:02.869Z,3.99
2023-01-27T01:20:02.854Z,4.01
2023-01-27T01:21:02.893Z,4.04
2023-01-27T01:22:04.810Z,4.08
2023-01-27T01:23:02.866Z,3.98
2023-01-27T01:24:02.929Z,4.06
2023-01-27T01:25:02.872Z,4.04
2023-01-27T01:26:02.875Z,4.04
2023-01-27T01:27:02.861Z,4.01
2023-01-27T01:28:02.872Z,4.04
2023-01-27T01:29:02.865Z,3.94
2023-01-27T01:30:02.870Z,3.98
2023-01-27T01:31:02.981Z,3.98
2023-01-27T01:32:02.879Z,4.05
2023-01-27T01:33:02.893Z,4.04
2023-01-27T01:34:02.879Z,4.02
2023-01-27T01:35:02.902Z,4.05
2023-01-27T01:36:02.872Z,3.98
2023-01-27T01:37:02.886Z,4.01
2023-01-27T01:38:02.882Z,4.06
2023-01-27T01:39:02.877Z,3.98
2023-01-27T01:40:02.878Z,3.99
2023-01-27T01:41:02.880Z,4.04
2023-01-27T01:42:02.887Z,4.01
2023-01-27T01:43:02.891Z,4.05
2023-01-27T01:44:02.888Z,3.98
2023-01-27T01:45:02.893Z,4.06
2023-01-27T01:46:02.919Z,4.13
2023-01-27T01:47:02.890Z,3.99
2023-01-27T01:48:02.889Z,4.06
2023-01-27T01:49:02.910Z,4.05
2023-01-27T01:50:02.890Z,4.04
2023-01-27T01:51:02.897Z,4.01
2023-01-27T01:52:02.889Z,3.91
2023-01-27T01:53:02.896Z,3.99
2023-01-27T01:54:02.892Z,3.86
2023-01-27T01:55:02.892Z,3.94
2023-01-27T01:56:02.915Z,3.86
2023-01-27T01:57:02.912Z,3.88
2023-01-27T01:58:02.915Z,3.87
2023-01-27T01:59:02.909Z,3.87
2023-01-27T02:00:02.913Z,3.91
2023-01-27T02:01:02.919Z,3.87
2023-01-27T02:02:02.951Z,3.91
2023-01-27T02:03:02.909Z,3.78
2023-01-27T02:04:02.903Z,3.86
2023-01-27T02:05:02.931Z,3.87
2023-01-27T02:06:02.915Z,3.94
2023-01-27T02:07:02.912Z,3.96
2023-01-27T02:08:02.917Z,3.96
2023-01-27T02:09:02.916Z,3.87
2023-01-27T02:10:02.937Z,3.94
2023-01-27T02:11:02.918Z,3.94
2023-01-27T02:12:02.913Z,4.01
2023-01-27T02:13:02.912Z,4.01
2023-01-27T02:14:02.913Z,3.98
2023-01-27T02:15:02.926Z,4.08
2023-01-27T02:16:02.930Z,4.14
2023-01-27T02:17:02.925Z,4.08
2023-01-27T02:18:02.928Z,4.10
2023-01-27T02:19:02.926Z,4.05
2023-01-27T02:20:02.931Z,4.04
2023-01-27T02:21:02.955Z,4.10
2023-01-27T02:22:02.930Z,4.02
2023-01-27T02:23:02.923Z,4.10
2023-01-27T02:24:02.955Z,4.05
2023-01-27T02:25:02.933Z,4.05
2023-01-27T02:26:02.927Z,4.06
2023-01-27T02:27:02.946Z,4.01
2023-01-27T02:28:02.930Z,4.01
2023-01-27T02:29:02.943Z,4.10
2023-01-27T02:30:02.940Z,4.14
2023-01-27T02:31:03.119Z,4.06
2023-01-27T02:32:02.931Z,4.04
2023-01-27T02:33:02.941Z,4.08
2023-01-27T02:34:02.943Z,4.08
2023-01-27T02:35:02.933Z,4.01
2023-01-27T02:36:02.936Z,4.02
2023-01-27T02:37:02.956Z,3.99
2023-01-27T02:38:02.949Z,3.83
2023-01-27T02:39:02.960Z,3.87
2023-01-27T02:40:02.941Z,3.87
2023-01-27T02:41:02.947Z,3.88
2023-01-27T02:42:02.954Z,3.99
2023-01-27T02:43:02.950Z,3.91
2023-01-27T02:44:03.029Z,3.88
2023-01-27T02:45:02.955Z,3.95
2023-01-27T02:46:03.008Z,3.96
2023-01-27T02:47:02.961Z,3.98
2023-01-27T02:48:02.956Z,3.99
2023-01-27T02:49:02.950Z,4.05
2023-01-27T02:50:02.955Z,4.12
2023-01-27T02:51:02.953Z,4.17
2023-01-27T02:52:02.964Z,4.17
2023-01-27T02:53:03.011Z,4.20
2023-01-27T02:54:02.961Z,4.19
2023-01-27T02:55:02.974Z,4.23
2023-01-27T02:56:02.966Z,4.22
2023-01-27T02:57:02.970Z,4.23
2023-01-27T02:58:02.966Z,4.26
2023-01-27T02:59:02.963Z,4.19
2023-01-27T03:00:02.967Z,4.19
2023-01-27T03:01:03.024Z,4.13
2023-01-27T03:02:02.979Z,4.22
2023-01-27T03:03:02.963Z,4.14
2023-01-27T03:04:02.982Z,4.16
2023-01-27T03:05:02.973Z,4.12
2023-01-27T03:06:02.974Z,4.19
2023-01-27T03:07:02.982Z,4.08
2023-01-27T03:08:02.974Z,4.13
2023-01-27T03:09:03.000Z,4.06
2023-01-27T03:10:02.974Z,4.06
2023-01-27T03:11:02.970Z,4.05
2023-01-27T03:12:02.984Z,4.13
2023-01-27T03:13:02.982Z,4.08
2023-01-27T03:14:03.003Z,4.10
2023-01-27T03:15:02.975Z,4.12
2023-01-27T03:16:03.049Z,4.17
2023-01-27T03:17:03.007Z,4.16
2023-01-27T03:18:02.981Z,4.19
2023-01-27T03:19:02.994Z,4.19
2023-01-27T03:20:02.995Z,4.24
2023-01-27T03:21:02.998Z,4.26
2023-01-27T03:22:02.998Z,4.24
2023-01-27T03:23:02.985Z,4.20
2023-01-27T03:24:03.043Z,4.20
2023-01-27T03:25:03.012Z,4.20
2023-01-27T03:26:03.010Z,4.10
2023-01-27T03:27:02.991Z,4.16
2023-01-27T03:28:02.989Z,4.08
2023-01-27T03:29:03.000Z,4.13
2023-01-27T03:30:03.007Z,4.13
2023-01-27T03:31:03.086Z,4.05
2023-01-27T03:32:03.003Z,4.19
2023-01-27T03:33:03.011Z,4.05
2023-01-27T03:34:02.998Z,4.16
2023-01-27T03:35:03.010Z,4.19
2023-01-27T03:36:02.997Z,4.19
2023-01-27T03:37:03.001Z,4.16
2023-01-27T03:38:03.007Z,4.22
2023-01-27T03:39:03.010Z,4.16
2023-01-27T03:40:03.001Z,4.12
2023-01-27T03:41:03.048Z,4.20
2023-01-27T03:42:03.014Z,4.13
2023-01-27T03:43:03.010Z,4.17
2023-01-27T03:44:03.012Z,4.16
2023-01-27T03:45:03.009Z,4.08
2023-01-27T03:46:03.046Z,4.24
2023-01-27T03:47:03.022Z,4.08
2023-01-27T03:48:03.018Z,4.19
2023-01-27T03:49:03.012Z,4.05
2023-01-27T03:50:03.022Z,4.05
2023-01-27T03:51:03.021Z,4.10
2023-01-27T03:52:03.028Z,4.13
2023-01-27T03:53:03.098Z,4.19
2023-01-27T03:54:03.019Z,4.17
2023-01-27T03:55:03.033Z,4.14
2023-01-27T03:56:03.022Z,4.13
2023-01-27T03:57:03.049Z,4.20
2023-01-27T03:58:03.024Z,4.20
2023-01-27T03:59:03.033Z,4.20
2023-01-27T04:00:03.038Z,4.19
2023-01-27T04:01:03.035Z,4.16
2023-01-27T04:02:03.026Z,4.16
2023-01-27T04:03:03.074Z,4.16
2023-01-27T04:04:03.028Z,4.19
2023-01-27T04:05:03.034Z,4.22
2023-01-27T04:06:03.032Z,4.23
2023-01-27T04:07:03.182Z,4.16
2023-01-27T04:08:03.050Z,4.14
2023-01-27T04:09:03.037Z,4.20
2023-01-27T04:10:03.044Z,4.28
2023-01-27T04:11:03.046Z,4.19
2023-01-27T04:12:03.050Z,4.26
2023-01-27T04:13:03.068Z,4.24
2023-01-27T04:14:03.075Z,4.19
2023-01-27T04:15:03.061Z,4.14
2023-01-27T04:16:03.143Z,4.22
2023-01-27T04:17:03.051Z,4.20
2023-01-27T04:18:03.063Z,4.20
2023-01-27T04:19:03.053Z,4.14
2023-01-27T04:20:03.072Z,4.05
2023-01-27T04:21:03.056Z,4.08
2023-01-27T04:22:03.064Z,4.16
2023-01-27T04:23:03.062Z,4.16
2023-01-27T04:24:03.151Z,4.19
2023-01-27T04:25:03.061Z,4.20
2023-01-27T04:26:03.062Z,4.23
2023-01-27T04:27:03.058Z,4.24
2023-01-27T04:28:03.059Z,4.23
2023-01-27T04:29:03.084Z,4.23
2023-01-27T04:30:03.062Z,4.23
2023-01-27T04:31:03.208Z,4.24
2023-01-27T04:32:03.064Z,4.19
2023-01-27T04:33:03.063Z,4.17
2023-01-27T04:34:03.102Z,4.17
2023-01-27T04:35:03.067Z,4.10
2023-01-27T04:36:03.077Z,4.06
2023-01-27T04:37:03.078Z,4.08
2023-01-27T04:38:03.082Z,4.05
2023-01-27T04:39:03.080Z,4.10
2023-01-27T04:40:03.096Z,4.16
2023-01-27T04:41:03.079Z,4.08
2023-01-27T04:42:03.144Z,4.22
2023-01-27T04:43:03.085Z,4.10
2023-01-27T04:44:03.084Z,4.12
2023-01-27T04:45:03.105Z,4.06
2023-01-27T04:46:03.121Z,4.05
2023-01-27T04:47:03.101Z,4.04
2023-01-27T04:48:03.090Z,4.08
2023-01-27T04:49:03.091Z,4.22
2023-01-27T04:50:03.099Z,4.16
2023-01-27T04:51:03.091Z,4.20
2023-01-27T04:52:03.105Z,4.16
2023-01-27T04:53:03.088Z,4.13
2023-01-27T04:54:03.094Z,4.23
2023-01-27T04:55:03.087Z,4.14
2023-01-27T04:56:03.098Z,4.17
2023-01-27T04:57:03.129Z,4.19
2023-01-27T04:58:03.095Z,4.20
2023-01-27T04:59:03.098Z,4.26
2023-01-27T05:00:03.108Z,4.23
2023-01-27T05:01:03.126Z,4.28
2023-01-27T05:02:03.119Z,4.22
2023-01-27T05:03:03.206Z,4.32
2023-01-27T05:04:03.105Z,4.35
2023-01-27T05:05:03.115Z,4.34
2023-01-27T05:06:03.107Z,4.31
2023-01-27T05:07:03.116Z,4.31
2023-01-27T05:08:03.112Z,4.22
2023-01-27T05:09:03.118Z,4.30
2023-01-27T05:10:03.111Z,4.20
2023-01-27T05:11:03.110Z,4.22
2023-01-27T05:12:03.118Z,4.22
2023-01-27T05:13:03.139Z,4.22
2023-01-27T05:14:03.112Z,4.23
2023-01-27T05:15:03.124Z,4.28
2023-01-27T05:16:03.212Z,4.19
2023-01-27T05:17:03.221Z,4.13
2023-01-27T05:18:03.124Z,4.22
2023-01-27T05:19:03.120Z,4.17
2023-01-27T05:20:03.127Z,4.22
2023-01-27T05:21:03.128Z,4.24
2023-01-27T05:22:03.132Z,4.22
2023-01-27T05:23:03.124Z,4.23
2023-01-27T05:24:03.148Z,4.20
2023-01-27T05:25:03.144Z,4.22
2023-01-27T05:26:03.130Z,4.17
2023-01-27T05:27:03.127Z,4.20
2023-01-27T05:28:03.139Z,4.23
2023-01-27T05:29:03.138Z,4.23
2023-01-27T05:30:03.134Z,4.26
2023-01-27T05:31:03.314Z,4.20
2023-01-27T05:32:03.142Z,4.28
2023-01-27T05:33:03.169Z,4.19
2023-01-27T05:34:03.138Z,4.23
2023-01-27T05:35:03.150Z,4.24
2023-01-27T05:36:03.146Z,4.24
2023-01-27T05:37:03.140Z,4.24
2023-01-27T05:38:03.141Z,4.28
2023-01-27T05:39:03.142Z,4.20
2023-01-27T05:40:03.142Z,4.34
2023-01-27T05:41:03.157Z,4.34
2023-01-27T05:42:03.160Z,4.24
2023-01-27T05:43:03.157Z,4.37
2023-01-27T05:44:03.153Z,4.31
2023-01-27T05:45:03.157Z,4.31
2023-01-27T05:46:03.245Z,4.32
2023-01-27T05:47:03.163Z,4.31
2023-01-27T05:48:03.162Z,4.40
2023-01-27T05:49:03.175Z,4.45
2023-01-27T05:50:03.157Z,4.48
2023-01-27T05:51:03.169Z,4.42
2023-01-27T05:52:03.160Z,4.45
2023-01-27T05:53:03.179Z,4.41
2023-01-27T05:54:03.162Z,4.42
2023-01-27T05:55:03.164Z,4.40
2023-01-27T05:56:03.165Z,4.40
2023-01-27T05:57:03.165Z,4.40
2023-01-27T05:58:03.167Z,4.35
2023-01-27T05:59:03.174Z,4.42
2023-01-27T06:00:03.175Z,4.42
2023-01-27T06:01:03.171Z,4.45
2023-01-27T06:02:03.222Z,4.45
2023-01-27T06:03:03.263Z,4.49
2023-01-27T06:04:03.181Z,4.45
2023-01-27T06:05:03.207Z,4.40
2023-01-27T06:06:03.195Z,4.50
2023-01-27T06:07:03.182Z,4.50
2023-01-27T06:08:03.186Z,4.42
2023-01-27T06:09:03.194Z,4.42
2023-01-27T06:10:03.183Z,4.45
2023-01-27T06:11:03.191Z,4.45
2023-01-27T06:12:03.184Z,4.48
2023-01-27T06:13:03.195Z,4.49
2023-01-27T06:14:03.192Z,4.38
2023-01-27T06:15:03.194Z,4.38
2023-01-27T06:16:03.269Z,4.35
2023-01-27T06:17:03.199Z,4.35
2023-01-27T06:18:03.210Z,4.31
2023-01-27T06:19:03.202Z,4.24
2023-01-27T06:20:03.206Z,4.19
2023-01-27T06:21:03.231Z,4.19
2023-01-27T06:22:03.205Z,4.28
2023-01-27T06:23:03.208Z,4.22
2023-01-27T06:24:03.265Z,4.23
2023-01-27T06:25:03.227Z,4.19
2023-01-27T06:26:03.206Z,4.22
2023-01-27T06:27:03.227Z,4.19
2023-01-27T06:28:03.214Z,4.19
2023-01-27T06:29:03.217Z,4.19
2023-01-27T06:30:03.208Z,4.20
2023-01-27T06:31:03.281Z,4.19
2023-01-27T06:32:03.294Z,4.23
2023-01-27T06:33:03.223Z,4.17
2023-01-27T06:34:03.220Z,4.22
2023-01-27T06:35:03.222Z,4.20
2023-01-27T06:36:03.215Z,4.22
2023-01-27T06:37:03.246Z,4.20
2023-01-27T06:38:03.216Z,4.08
2023-01-27T06:39:03.220Z,4.04
2023-01-27T06:40:03.222Z,4.17
2023-01-27T06:41:03.230Z,4.10
2023-01-27T06:42:03.230Z,4.16
2023-01-27T06:43:03.234Z,4.12
2023-01-27T06:44:03.228Z,4.06
2023-01-27T06:45:03.232Z,3.98
2023-01-27T06:46:05.689Z,4.08
2023-01-27T06:47:03.233Z,3.99
2023-01-27T06:48:03.237Z,4.02
2023-01-27T06:49:03.237Z,4.05
2023-01-27T06:50:03.251Z,4.13
2023-01-27T06:51:03.235Z,4.10
2023-01-27T06:52:03.241Z,4.16
2023-01-27T06:53:03.279Z,4.13
2023-01-27T06:54:03.235Z,4.12
2023-01-27T06:55:03.242Z,4.06
2023-01-27T06:56:03.248Z,4.08
2023-01-27T06:57:03.238Z,4.12
2023-01-27T06:58:03.248Z,4.14
2023-01-27T06:59:03.239Z,4.17
2023-01-27T07:00:03.248Z,4.08
2023-01-27T07:01:03.252Z,4.08
2023-01-27T07:02:03.260Z,4.05
2023-01-27T07:03:03.243Z,4.12
2023-01-27T07:04:03.257Z,4.19
2023-01-27T07:05:03.246Z,4.12
2023-01-27T07:06:03.250Z,4.22
2023-01-27T07:07:03.258Z,4.19
2023-01-27T07:08:03.268Z,4.22
2023-01-27T07:09:03.280Z,4.22
2023-01-27T07:10:03.260Z,4.19
2023-01-27T07:11:03.266Z,4.22
2023-01-27T07:12:03.263Z,4.20
2023-01-27T07:13:03.255Z,4.14
2023-01-27T07:14:03.265Z,4.22
2023-01-27T07:15:03.264Z,4.22
2023-01-27T07:16:03.375Z,4.26
2023-01-27T07:17:03.320Z,4.23
2023-01-27T07:18:03.267Z,4.24
2023-01-27T07:19:03.261Z,4.26
2023-01-27T07:20:03.266Z,4.28
2023-01-27T07:21:03.265Z,4.30
2023-01-27T07:22:03.264Z,4.24
2023-01-27T07:23:03.278Z,4.24
2023-01-27T07:24:03.318Z,4.23
2023-01-27T07:25:03.297Z,4.24
2023-01-27T07:26:09.857Z,4.24
2023-01-27T07:27:03.297Z,4.22
2023-01-27T07:28:03.341Z,4.23
2023-01-27T07:29:03.276Z,4.22
2023-01-27T07:30:03.275Z,4.19
2023-01-27T07:31:03.483Z,4.19
2023-01-27T07:32:03.453Z,4.23
2023-01-27T07:33:03.276Z,4.24
2023-01-27T07:34:03.279Z,4.20
2023-01-27T07:35:03.282Z,4.20
2023-01-27T07:36:03.292Z,4.32
2023-01-27T07:37:03.414Z,4.37
2023-01-27T07:38:03.290Z,4.40
2023-01-27T07:39:03.295Z,4.38
2023-01-27T07:40:03.292Z,4.42
2023-01-27T07:41:03.317Z,4.45
2023-01-27T07:42:03.438Z,4.40
2023-01-27T07:43:03.291Z,4.38
2023-01-27T07:44:03.291Z,4.41
2023-01-27T07:45:03.353Z,4.40
2023-01-27T07:46:03.330Z,4.40
2023-01-27T07:47:03.305Z,4.38
2023-01-27T07:48:03.315Z,4.32
2023-01-27T07:49:03.298Z,4.35
2023-01-27T07:50:03.321Z,4.37
2023-01-27T07:51:03.296Z,4.45
2023-01-27T07:52:03.301Z,4.37
2023-01-27T07:53:03.312Z,4.50
2023-01-27T07:54:03.313Z,4.49
2023-01-27T07:55:03.306Z,4.53
2023-01-27T07:56:03.306Z,4.50
2023-01-27T07:57:03.328Z,4.59
2023-01-27T07:58:03.331Z,4.67
2023-01-27T07:59:03.324Z,4.67
2023-01-27T08:00:03.310Z,4.63
2023-01-27T08:01:03.340Z,4.70
2023-01-27T08:02:03.311Z,4.78
2023-01-27T08:03:03.434Z,4.66
2023-01-27T08:04:03.322Z,4.60
2023-01-27T08:05:03.315Z,4.60
2023-01-27T08:06:03.317Z,4.60
2023-01-27T08:07:03.315Z,4.70
2023-01-27T08:08:03.363Z,4.66
2023-01-27T08:09:03.330Z,4.66
2023-01-27T08:10:03.327Z,4.62
2023-01-27T08:11:03.319Z,4.60
2023-01-27T08:12:03.322Z,4.52
2023-01-27T08:13:03.397Z,4.59
2023-01-27T08:14:03.327Z,4.59
2023-01-27T08:15:03.328Z,4.55
2023-01-27T08:16:03.334Z,4.58
2023-01-27T08:17:03.360Z,4.60
2023-01-27T08:18:03.331Z,4.67
2023-01-27T08:19:03.340Z,4.67
2023-01-27T08:20:03.343Z,4.59
2023-01-27T08:21:03.335Z,4.60
2023-01-27T08:22:03.342Z,4.66
2023-01-27T08:23:03.343Z,4.71
2023-01-27T08:24:03.362Z,4.70
2023-01-27T08:25:03.343Z,4.70
2023-01-27T08:26:03.357Z,4.70
2023-01-27T08:27:03.341Z,4.77
2023-01-27T08:28:03.349Z,4.80
2023-01-27T08:29:03.376Z,4.67
2023-01-27T08:30:03.351Z,4.68
2023-01-27T08:31:03.355Z,4.73
2023-01-27T08:32:03.354Z,4.74
2023-01-27T08:33:03.357Z,4.82
2023-01-27T08:34:03.360Z,4.75
2023-01-27T08:35:03.353Z,4.75
2023-01-27T08:36:03.360Z,4.70
2023-01-27T08:37:03.361Z,4.73
2023-01-27T08:38:03.379Z,4.75
2023-01-27T08:39:03.365Z,4.77
2023-01-27T08:40:03.372Z,4.82
2023-01-27T08:41:03.367Z,4.73
2023-01-27T08:42:03.367Z,4.86
2023-01-27T08:43:04.977Z,4.92
2023-01-27T08:44:03.378Z,4.92
2023-01-27T08:45:03.537Z,4.93
2023-01-27T08:46:03.480Z,4.97
2023-01-27T08:47:03.385Z,4.96
2023-01-27T08:48:03.379Z,5.02
2023-01-27T08:49:03.385Z,5.10
2023-01-27T08:50:03.388Z,5.07
2023-01-27T08:51:03.395Z,5.12
2023-01-27T08:52:03.384Z,5.02
2023-01-27T08:53:03.388Z,5.14
2023-01-27T08:54:03.394Z,5.12
2023-01-27T08:55:03.391Z,5.28
2023-01-27T08:56:03.381Z,5.20
2023-01-27T08:57:03.393Z,5.26
2023-01-27T08:58:03.407Z,5.29
2023-01-27T08:59:03.392Z,5.32
2023-01-27T09:00:03.401Z,5.33
2023-01-27T09:01:03.483Z,5.39
2023-01-27T09:02:03.400Z,5.41
2023-01-27T09:03:03.394Z,5.47
2023-01-27T09:04:03.408Z,5.44
2023-01-27T09:05:03.409Z,5.41
2023-01-27T09:06:03.406Z,5.47
2023-01-27T09:07:03.407Z,5.50
2023-01-27T09:08:03.419Z,5.48
2023-01-27T09:09:03.410Z,5.59
2023-01-27T09:10:14.149Z,5.61
2023-01-27T09:11:03.415Z,5.51
2023-01-27T09:12:03.419Z,5.57
2023-01-27T09:13:03.411Z,5.53
2023-01-27T09:14:03.412Z,5.51
2023-01-27T09:15:03.414Z,5.61
2023-01-27T09:16:03.486Z,5.66
2023-01-27T09:17:03.440Z,5.64
2023-01-27T09:18:06.065Z,5.64
2023-01-27T09:19:03.421Z,5.72
2023-01-27T09:20:03.426Z,5.65
2023-01-27T09:21:03.427Z,5.71
2023-01-27T09:22:03.425Z,5.72
2023-01-27T09:23:03.429Z,5.66
2023-01-27T09:24:03.482Z,5.66
2023-01-27T09:25:03.441Z,5.73
2023-01-27T09:26:03.463Z,5.71
2023-01-27T09:27:03.447Z,5.71
2023-01-27T09:28:03.440Z,5.72
2023-01-27T09:29:03.443Z,5.71
2023-01-27T09:30:03.460Z,5.75
2023-01-27T09:31:03.615Z,5.80
2023-01-27T09:32:03.536Z,5.82
2023-01-27T09:33:03.478Z,5.75
2023-01-27T09:34:03.454Z,5.80
2023-01-27T09:35:03.464Z,5.80
2023-01-27T09:36:03.452Z,5.84
2023-01-27T09:37:03.497Z,5.80
2023-01-27T09:38:03.468Z,5.91
2023-01-27T09:39:03.460Z,5.87
2023-01-27T09:40:03.457Z,5.79
2023-01-27T09:41:03.463Z,5.87
2023-01-27T09:42:03.461Z,5.97
2023-01-27T09:43:03.463Z,5.94
2023-01-27T09:44:03.462Z,5.94
2023-01-27T09:45:03.465Z,5.89
2023-01-27T09:46:03.491Z,5.93
2023-01-27T09:47:03.472Z,5.91
2023-01-27T09:48:03.507Z,5.94
2023-01-27T09:49:03.531Z,5.91
2023-01-27T09:50:03.490Z,5.93
2023-01-27T09:51:04.239Z,5.93
2023-01-27T09:52:03.483Z,5.93
2023-01-27T09:53:03.480Z,5.97
2023-01-27T09:54:03.480Z,5.91
2023-01-27T09:55:03.496Z,5.90
2023-01-27T09:56:03.505Z,5.91
2023-01-27T09:57:03.487Z,5.99
2023-01-27T09:58:03.488Z,5.90
2023-01-27T09:59:03.500Z,5.89
2023-01-27T10:00:03.495Z,5.91
2023-01-27T10:01:03.505Z,5.86
2023-01-27T10:02:03.503Z,5.82
2023-01-27T10:03:03.503Z,5.87
2023-01-27T10:04:03.511Z,5.89
2023-01-27T10:05:03.547Z,5.91
2023-01-27T10:06:03.504Z,5.97
2023-01-27T10:07:03.511Z,5.97
2023-01-27T10:08:03.512Z,5.97
2023-01-27T10:09:03.513Z,5.89
2023-01-27T10:10:03.509Z,5.93
2023-01-27T10:11:03.520Z,5.94
2023-01-27T10:12:03.516Z,5.93
2023-01-27T10:13:03.524Z,5.94
2023-01-27T10:14:03.516Z,5.94
2023-01-27T10:15:03.529Z,5.99
2023-01-27T10:16:03.573Z,5.94
2023-01-27T10:17:03.527Z,5.97
2023-01-27T10:18:03.537Z,5.94
2023-01-27T10:19:03.525Z,5.91
2023-01-27T10:20:03.533Z,5.97
2023-01-27T10:21:03.558Z,5.93
2023-01-27T10:22:03.532Z,5.98
2023-01-27T10:23:03.534Z,5.93
2023-01-27T10:24:03.587Z,5.90
2023-01-27T10:25:03.537Z,5.90
2023-01-27T10:26:03.545Z,5.97
2023-01-27T10:27:03.549Z,5.94
2023-01-27T10:28:03.551Z,5.98
2023-01-27T10:29:03.556Z,5.98
2023-01-27T10:30:03.547Z,5.97
2023-01-27T10:31:03.632Z,5.94
2023-01-27T10:32:03.564Z,5.90
2023-01-27T10:33:03.560Z,5.89
2023-01-27T10:34:03.569Z,5.94
2023-01-27T10:35:03.566Z,5.97
2023-01-27T10:36:03.560Z,5.91
2023-01-27T10:37:03.579Z,5.89
2023-01-27T10:38:03.566Z,5.90
2023-01-27T10:39:03.572Z,5.82
2023-01-27T10:40:03.583Z,5.86
2023-01-27T10:41:03.567Z,5.86
2023-01-27T10:42:03.577Z,5.84
2023-01-27T10:43:03.571Z,5.80
2023-01-27T10:44:03.573Z,5.86
2023-01-27T10:45:03.642Z,5.90
2023-01-27T10:46:03.620Z,5.91
2023-01-27T10:47:03.580Z,5.91
2023-01-27T10:48:03.589Z,5.91
2023-01-27T10:49:03.591Z,5.93
2023-01-27T10:50:03.587Z,5.93
2023-01-27T10:51:03.598Z,5.79
2023-01-27T10:52:03.586Z,5.80
2023-01-27T10:53:03.620Z,5.76
2023-01-27T10:54:03.590Z,5.84
2023-01-27T10:55:03.604Z,5.76
2023-01-27T10:56:03.593Z,5.82
2023-01-27T10:57:03.599Z,5.79
2023-01-27T10:58:03.598Z,5.79
2023-01-27T10:59:03.604Z,5.86
2023-01-27T11:00:44.358Z,5.90
2023-01-27T11:01:21.726Z,5.93
2023-01-27T11:02:03.733Z,5.91
2023-01-27T11:03:03.620Z,5.91
2023-01-27T11:04:03.674Z,5.90
2023-01-27T11:05:03.614Z,5.93
2023-01-27T11:06:03.616Z,5.94
2023-01-27T11:07:03.625Z,5.98
2023-01-27T11:08:03.619Z,5.98
2023-01-27T11:09:03.640Z,5.97
2023-01-27T11:10:03.623Z,5.99
2023-01-27T11:11:03.624Z,6.02
2023-01-27T11:12:03.704Z,6.02
2023-01-27T11:13:03.644Z,6.09
2023-01-27T11:14:03.644Z,5.99
2023-01-27T11:15:03.644Z,6.02
2023-01-27T11:16:03.651Z,5.99
2023-01-27T11:17:03.647Z,5.98
2023-01-27T11:18:03.664Z,6.01
2023-01-27T11:19:03.653Z,6.01
2023-01-27T11:20:03.652Z,6.11
2023-01-27T11:21:03.652Z,6.02
2023-01-27T11:22:08.369Z,6.05
2023-01-27T11:23:03.655Z,6.08
2023-01-27T11:24:03.795Z,6.12
2023-01-27T11:25:03.681Z,6.16
2023-01-27T11:26:03.668Z,6.12
2023-01-27T11:27:03.699Z,6.16
2023-01-27T11:28:03.668Z,6.11
2023-01-27T11:29:03.674Z,6.04
2023-01-27T11:30:03.763Z,6.04
2023-01-27T11:31:03.742Z,6.07
2023-01-27T11:32:03.832Z,6.11
2023-01-27T11:33:03.686Z,6.09
2023-01-27T11:34:03.692Z,6.16
2023-01-27T11:35:03.683Z,6.11
2023-01-27T11:36:03.685Z,6.04
2023-01-27T11:37:03.689Z,6.09
2023-01-27T11:38:14.997Z,6.11
2023-01-27T11:39:03.684Z,6.17
2023-01-27T11:40:03.712Z,6.05
2023-01-27T11:41:03.713Z,6.14
2023-01-27T11:42:03.696Z,6.24
2023-01-27T11:43:03.742Z,6.26
2023-01-27T11:44:03.701Z,6.22
2023-01-27T11:45:03.696Z,6.17
2023-01-27T11:46:03.776Z,6.14
2023-01-27T11:47:03.704Z,6.05
2023-01-27T11:48:03.705Z,6.22
2023-01-27T11:49:03.714Z,6.16
2023-01-27T11:50:03.717Z,6.14
2023-01-27T11:51:03.718Z,6.12
2023-01-27T11:52:03.715Z,6.17
2023-01-27T11:53:03.715Z,6.12
2023-01-27T11:54:03.719Z,6.09
2023-01-27T11:55:03.728Z,6.11
2023-01-27T11:56:03.723Z,6.09
2023-01-27T11:57:03.745Z,6.04
2023-01-27T11:58:03.729Z,6.01
2023-01-27T11:59:03.727Z,5.93
2023-01-27T12:00:03.732Z,5.90
2023-01-27T12:01:03.737Z,5.86
2023-01-27T12:02:03.746Z,5.79
2023-01-27T12:03:03.748Z,5.87
2023-01-27T12:04:03.815Z,5.86
2023-01-27T12:05:03.819Z,5.69
2023-01-27T12:06:03.755Z,5.86
2023-01-27T12:07:03.753Z,5.76
2023-01-27T12:08:03.769Z,5.76
2023-01-27T12:09:03.756Z,5.84
2023-01-27T12:10:03.767Z,5.89
2023-01-27T12:11:03.763Z,5.94
2023-01-27T12:12:03.757Z,5.97
2023-01-27T12:13:03.804Z,5.93
2023-01-27T12:14:03.773Z,5.90
2023-01-27T12:15:03.772Z,5.91
2023-01-27T12:16:03.868Z,5.90
2023-01-27T12:17:03.764Z,5.86
2023-01-27T12:18:03.768Z,5.89
2023-01-27T12:19:03.808Z,5.86
2023-01-27T12:20:03.780Z,5.87
2023-01-27T12:21:03.783Z,5.89
2023-01-27T12:22:03.783Z,5.90
2023-01-27T12:23:03.779Z,5.94
2023-01-27T12:24:03.815Z,5.97
2023-01-27T12:25:03.788Z,5.90
2023-01-27T12:26:03.786Z,5.98
2023-01-27T12:27:03.786Z,5.97
2023-01-27T12:28:03.793Z,5.97
2023-01-27T12:29:03.821Z,5.97
2023-01-27T12:30:03.801Z,5.91
2023-01-27T12:31:03.876Z,5.90
2023-01-27T12:32:03.870Z,5.90
2023-01-27T12:33:03.808Z,5.93
2023-01-27T12:34:03.810Z,5.98
2023-01-27T12:35:03.811Z,5.91
2023-01-27T12:36:03.812Z,5.93
2023-01-27T12:37:03.810Z,5.94
2023-01-27T12:38:03.812Z,5.93
2023-01-27T12:39:03.821Z,5.87
2023-01-27T12:40:03.821Z,5.89
2023-01-27T12:41:03.816Z,5.82
2023-01-27T12:42:03.849Z,5.91
2023-01-27T12:43:03.818Z,5.80
2023-01-27T12:44:03.831Z,5.76
2023-01-27T12:45:03.848Z,5.79
2023-01-27T12:46:03.840Z,5.76
2023-01-27T12:47:03.832Z,5.80
2023-01-27T12:48:03.843Z,5.80
2023-01-27T12:49:03.827Z,5.76
2023-01-27T12:50:03.840Z,5.86
2023-01-27T12:51:03.834Z,5.84
2023-01-27T12:52:03.832Z,5.87
2023-01-27T12:53:03.838Z,5.83
2023-01-27T12:54:03.845Z,5.93
2023-01-27T12:55:03.843Z,5.89
2023-01-27T12:56:03.855Z,5.89
2023-01-27T12:57:03.851Z,5.94
2023-01-27T12:58:03.855Z,5.90
2023-01-27T12:59:03.861Z,5.93
2023-01-27T13:00:03.864Z,5.98
2023-01-27T13:01:03.935Z,5.89
2023-01-27T13:02:03.913Z,5.97
2023-01-27T13:03:03.863Z,5.94
2023-01-27T13:04:03.975Z,5.93
2023-01-27T13:05:03.870Z,5.98
2023-01-27T13:06:03.873Z,5.97
2023-01-27T13:07:03.867Z,5.94
2023-01-27T13:08:03.868Z,5.91
2023-01-27T13:09:03.875Z,5.94
2023-01-27T13:10:04.037Z,5.91
2023-01-27T13:11:03.875Z,5.93
2023-01-27T13:12:03.881Z,5.90
2023-01-27T13:13:03.885Z,5.97
2023-01-27T13:14:03.879Z,5.91
2023-01-27T13:15:03.920Z,5.86
2023-01-27T13:16:03.942Z,5.84
2023-01-27T13:17:03.915Z,5.89
2023-01-27T13:18:03.887Z,5.89